createdAt,value
2023-05-24T00:00:34.443Z,20.90
2023-05-24T00:03:04.800Z,21.73
2023-05-24T00:05:32.944Z,19.57
2023-05-24T00:08:01.248Z,18.23
2023-05-24T00:10:29.309Z,23.27
2023-05-24T00:12:57.443Z,20.40
2023-05-24T00:15:25.557Z,20.13
2023-05-24T00:17:53.605Z,20.17
2023-05-24T00:20:23.008Z,19.40
2023-05-24T00:22:51.717Z,23.83
2023-05-24T00:25:19.736Z,22.53
2023-05-24T00:27:48.189Z,24.70
2023-05-24T00:30:16.362Z,25.03
2023-05-24T00:32:44.404Z,17.23
2023-05-24T00:35:12.464Z,22.67
2023-05-24T00:37:45.469Z,21.40
2023-05-24T00:40:14.232Z,22.00
2023-05-24T00:42:42.257Z,20.87
2023-05-24T00:45:11.295Z,21.97
2023-05-24T00:47:39.426Z,17.47
2023-05-24T00:50:09.547Z,18.23
2023-05-24T00:52:38.025Z,25.13
2023-05-24T00:55:09.602Z,19.13
2023-05-24T00:57:38.124Z,18.37
2023-05-24T01:00:08.018Z,18.27
2023-05-24T01:02:36.365Z,19.93
2023-05-24T01:05:04.629Z,24.17
2023-05-24T01:07:38.875Z,20.83
2023-05-24T01:10:15.691Z,18.77
2023-05-24T01:12:54.698Z,16.03
2023-05-24T01:15:29.263Z,21.20
2023-05-24T01:18:05.982Z,18.33
2023-05-24T01:20:38.470Z,26.33
2023-05-24T01:23:19.731Z,18.37
2023-05-24T01:26:04.450Z,22.27
2023-05-24T01:28:35.547Z,26.23
2023-05-24T01:31:05.110Z,17.77
2023-05-24T01:33:33.948Z,19.53
2023-05-24T01:36:01.953Z,14.83
2023-05-24T01:38:32.111Z,16.50
2023-05-24T01:41:05.670Z,20.73
2023-05-24T01:43:40.714Z,17.70
2023-05-24T01:46:20.032Z,19.97
2023-05-24T01:48:56.481Z,17.57
2023-05-24T01:51:26.388Z,19.97
2023-05-24T01:53:56.144Z,19.27
2023-05-24T01:56:25.154Z,22.20
2023-05-24T01:58:55.836Z,17.10
2023-05-24T02:01:24.556Z,20.73
2023-05-24T02:03:52.768Z,15.23
2023-05-24T02:06:20.802Z,16.13
2023-05-24T02:08:48.818Z,20.67
2023-05-24T02:11:16.880Z,17.90
2023-05-24T02:13:44.891Z,20.27
2023-05-24T02:16:14.364Z,20.33
2023-05-24T02:18:44.521Z,18.57
2023-05-24T02:21:12.907Z,15.80
2023-05-24T02:23:41.069Z,16.53
2023-05-24T02:26:11.548Z,19.03
2023-05-24T02:28:39.600Z,19.77
2023-05-24T02:31:08.608Z,19.30
2023-05-24T02:33:38.340Z,19.40
2023-05-24T02:36:06.546Z,25.77
2023-05-24T02:38:34.552Z,15.27
2023-05-24T02:41:02.575Z,21.17
2023-05-24T02:43:30.905Z,19.50
2023-05-24T02:45:58.957Z,19.50
2023-05-24T02:48:26.953Z,17.77
2023-05-24T02:50:56.368Z,21.77
2023-05-24T02:53:24.378Z,20.87
2023-05-24T02:55:52.452Z,22.37
2023-05-24T02:58:20.460Z,20.27
2023-05-24T03:00:48.513Z,22.87
2023-05-24T03:03:16.852Z,22.50
2023-05-24T03:05:44.947Z,19.87
2023-05-24T03:08:14.360Z,26.60
2023-05-24T03:10:42.558Z,21.90
2023-05-24T03:13:10.821Z,19.03
2023-05-24T03:15:38.857Z,18.53
2023-05-24T03:18:06.900Z,19.00
2023-05-24T03:20:34.976Z,24.80
2023-05-24T03:23:03.050Z,19.63
2023-05-24T03:25:32.525Z,20.00
2023-05-24T03:28:01.145Z,21.67
2023-05-24T03:30:29.194Z,18.87
2023-05-24T03:32:57.232Z,26.23
2023-05-24T03:35:25.455Z,20.30
2023-05-24T03:37:53.856Z,22.17
2023-05-24T03:40:21.892Z,22.43
2023-05-24T03:42:51.633Z,18.43
2023-05-24T03:45:30.566Z,18.43
2023-05-24T03:48:06.507Z,15.67
2023-05-24T03:50:34.522Z,19.13
2023-05-24T03:53:02.551Z,18.23
2023-05-24T03:55:30.599Z,18.87
2023-05-24T03:58:00.017Z,22.57
2023-05-24T04:00:28.201Z,17.93
2023-05-24T04:02:56.955Z,16.03
2023-05-24T04:05:27.123Z,23.43
2023-05-24T04:07:55.364Z,25.13
2023-05-24T04:10:23.870Z,23.70
2023-05-24T04:12:51.937Z,20.43
2023-05-24T04:15:21.384Z,24.07
2023-05-24T04:17:54.903Z,21.47
2023-05-24T04:20:25.449Z,22.70
2023-05-24T04:22:53.910Z,19.27
2023-05-24T04:25:22.674Z,21.33
2023-05-24T04:27:50.910Z,24.13
2023-05-24T04:30:19.537Z,20.57
2023-05-24T04:32:48.978Z,28.47
2023-05-24T04:35:17.226Z,22.80
2023-05-24T04:37:45.252Z,24.07
2023-05-24T04:40:13.955Z,20.40
2023-05-24T04:42:41.973Z,19.13
2023-05-24T04:45:10.895Z,24.40
2023-05-24T04:47:38.986Z,22.97
2023-05-24T04:50:09.110Z,19.90
2023-05-24T04:52:37.501Z,25.50
2023-05-24T04:55:06.118Z,24.90
2023-05-24T04:57:34.190Z,21.03
2023-05-24T05:00:02.350Z,27.10
2023-05-24T05:02:31.190Z,24.97
2023-05-24T05:04:59.211Z,22.10
2023-05-24T05:07:28.610Z,25.43
2023-05-24T05:09:56.956Z,27.40
2023-05-24T05:12:24.991Z,24.97
2023-05-24T05:14:53.233Z,29.37
2023-05-24T05:17:21.785Z,25.43
2023-05-24T05:19:49.861Z,26.77
2023-05-24T05:22:17.974Z,23.07
2023-05-24T05:24:47.361Z,28.53
2023-05-24T05:27:15.455Z,26.17
2023-05-24T05:29:43.516Z,19.93
2023-05-24T05:32:11.634Z,26.13
2023-05-24T05:34:39.766Z,17.80
2023-05-24T05:37:08.707Z,24.63
2023-05-24T05:39:36.703Z,22.80
2023-05-24T05:42:06.884Z,25.80
2023-05-24T05:44:34.898Z,20.90
2023-05-24T05:47:04.001Z,23.93
2023-05-24T05:49:32.785Z,31.37
2023-05-24T05:52:01.129Z,27.17
2023-05-24T05:54:29.154Z,28.37
2023-05-24T05:56:57.615Z,29.97
2023-05-24T05:59:27.971Z,26.20
2023-05-24T06:01:55.980Z,21.50
2023-05-24T06:04:24.007Z,27.33
2023-05-24T06:06:52.162Z,23.87
2023-05-24T06:09:20.570Z,25.30
2023-05-24T06:11:48.583Z,33.23
2023-05-24T06:14:18.538Z,29.27
2023-05-24T06:16:48.097Z,32.87
2023-05-24T06:19:16.676Z,25.50
2023-05-24T06:21:47.963Z,28.80
2023-05-24T06:24:20.398Z,29.43
2023-05-24T06:26:49.170Z,26.67
2023-05-24T06:29:19.662Z,30.33
2023-05-24T06:31:49.763Z,27.50
2023-05-24T06:34:19.106Z,24.30
2023-05-24T06:36:48.401Z,27.17
2023-05-24T06:39:17.402Z,28.33
2023-05-24T06:41:46.193Z,29.63
2023-05-24T06:44:14.453Z,29.93
2023-05-24T06:46:42.662Z,32.40
2023-05-24T06:49:13.240Z,27.57
2023-05-24T06:51:41.327Z,34.00
2023-05-24T06:54:09.375Z,26.47
2023-05-24T06:56:37.425Z,27.97
2023-05-24T06:59:05.957Z,30.60
2023-05-24T07:01:35.588Z,24.07
2023-05-24T07:04:03.690Z,29.33
2023-05-24T07:06:33.661Z,28.80
2023-05-24T07:09:01.919Z,29.77
2023-05-24T07:11:30.069Z,26.50
2023-05-24T07:13:58.308Z,31.77
2023-05-24T07:16:26.471Z,30.23
2023-05-24T07:18:56.413Z,26.27
2023-05-24T07:21:24.437Z,19.83
2023-05-24T07:23:53.866Z,30.90
2023-05-24T07:26:21.894Z,25.00
2023-05-24T07:28:49.931Z,26.10
2023-05-24T07:31:18.064Z,24.13
2023-05-24T07:33:46.142Z,27.87
2023-05-24T07:36:14.191Z,26.43
2023-05-24T07:38:42.192Z,27.30
2023-05-24T07:41:12.192Z,26.57
2023-05-24T07:43:40.205Z,32.43
2023-05-24T07:46:08.320Z,30.60
2023-05-24T07:48:36.358Z,33.83
2023-05-24T07:51:04.541Z,31.20
2023-05-24T07:53:34.172Z,27.80
2023-05-24T07:56:02.258Z,25.87
2023-05-24T07:58:31.756Z,29.13
2023-05-24T08:00:59.854Z,27.10
2023-05-24T08:03:28.826Z,26.83
2023-05-24T08:05:57.433Z,24.83
2023-05-24T08:08:25.745Z,25.83
2023-05-24T08:10:53.764Z,26.80
2023-05-24T08:13:22.146Z,26.07
2023-05-24T08:15:51.631Z,25.10
2023-05-24T08:18:19.734Z,31.90
2023-05-24T08:20:47.790Z,23.07
2023-05-24T08:23:15.957Z,21.90
2023-05-24T08:25:44.338Z,30.17
2023-05-24T08:28:12.537Z,25.20
2023-05-24T08:30:40.837Z,24.77
2023-05-24T08:33:10.260Z,24.17
2023-05-24T08:35:38.369Z,24.67
2023-05-24T08:38:06.711Z,23.73
2023-05-24T08:40:34.789Z,24.87
2023-05-24T08:43:03.402Z,21.33
2023-05-24T08:45:32.346Z,24.20
2023-05-24T08:48:01.560Z,20.17
2023-05-24T08:50:32.649Z,20.70
2023-05-24T08:53:02.628Z,16.70
2023-05-24T08:55:33.341Z,20.47
2023-05-24T08:58:02.150Z,20.03
2023-05-24T09:00:30.219Z,17.93
2023-05-24T09:02:59.969Z,21.37
2023-05-24T09:05:30.326Z,22.50
2023-05-24T09:08:00.325Z,24.17
2023-05-24T09:10:37.990Z,25.07
2023-05-24T09:13:16.069Z,21.90
2023-05-24T09:15:44.794Z,18.27
2023-05-24T09:18:13.061Z,18.70
2023-05-24T09:20:42.828Z,24.03
2023-05-24T09:23:12.807Z,20.10
2023-05-24T09:25:45.000Z,23.27
2023-05-24T09:28:16.056Z,26.13
2023-05-24T09:30:44.966Z,21.70
2023-05-24T09:33:13.657Z,26.47
2023-05-24T09:35:44.903Z,19.53
2023-05-24T09:38:19.570Z,25.97
2023-05-24T09:40:47.866Z,21.10
2023-05-24T09:43:15.900Z,22.17
2023-05-24T09:45:46.533Z,28.27
2023-05-24T09:48:15.618Z,33.33
2023-05-24T09:50:47.476Z,21.17
2023-05-24T09:53:18.705Z,20.83
2023-05-24T09:55:46.997Z,16.33
2023-05-24T09:58:16.836Z,21.10
2023-05-24T10:00:45.513Z,20.57
2023-05-24T10:03:15.236Z,20.80
2023-05-24T10:05:46.602Z,19.77
2023-05-24T10:08:15.460Z,18.67
2023-05-24T10:10:44.711Z,16.47
2023-05-24T10:13:15.970Z,21.50
2023-05-24T10:15:44.914Z,18.80
2023-05-24T10:18:14.382Z,19.77
2023-05-24T10:20:44.641Z,24.47
2023-05-24T10:23:17.440Z,23.27
2023-05-24T10:25:51.172Z,24.87
2023-05-24T10:28:21.511Z,20.67
2023-05-24T10:31:01.524Z,19.83
2023-05-24T10:33:30.921Z,16.87
2023-05-24T10:36:00.409Z,10.03
2023-05-24T10:38:28.548Z,18.93
2023-05-24T10:40:56.701Z,16.20
2023-05-24T10:43:25.484Z,17.20
2023-05-24T10:45:53.632Z,20.20
2023-05-24T10:48:41.145Z,20.77
2023-05-24T10:51:36.672Z,18.87
2023-05-24T10:54:18.809Z,19.60
2023-05-24T10:56:49.027Z,16.33
2023-05-24T10:59:31.432Z,15.90
2023-05-24T11:02:00.973Z,14.67
2023-05-24T11:04:33.477Z,13.63
2023-05-24T11:07:09.529Z,18.93
2023-05-24T11:09:39.473Z,13.60
2023-05-24T11:12:09.672Z,12.93
2023-05-24T11:14:40.541Z,14.10
2023-05-24T11:17:09.608Z,14.43
2023-05-24T11:19:39.317Z,13.63
2023-05-24T11:22:10.155Z,14.37
2023-05-24T11:24:38.355Z,15.97
2023-05-24T11:27:07.160Z,14.00
2023-05-24T11:29:42.586Z,12.63
2023-05-24T11:32:10.728Z,14.60
2023-05-24T11:34:40.077Z,12.17
2023-05-24T11:37:10.632Z,13.80
2023-05-24T11:39:39.299Z,13.53
2023-05-24T11:42:08.783Z,9.53
2023-05-24T11:44:39.174Z,13.00
2023-05-24T11:47:08.989Z,8.47
2023-05-24T11:49:37.173Z,11.07
2023-05-24T11:52:05.280Z,11.40
2023-05-24T11:54:35.097Z,10.43
2023-05-24T11:57:03.535Z,12.37
2023-05-24T11:59:31.786Z,12.40
2023-05-24T12:02:01.484Z,12.47
2023-05-24T12:04:30.499Z,12.93
2023-05-24T12:06:59.142Z,10.07
2023-05-24T12:09:27.938Z,9.90
2023-05-24T12:11:58.531Z,6.73
2023-05-24T12:14:30.958Z,7.40
2023-05-24T12:16:59.902Z,8.27
2023-05-24T12:19:34.619Z,9.03
2023-05-24T12:22:06.122Z,7.27
2023-05-24T12:24:34.697Z,6.50
2023-05-24T12:27:06.836Z,8.77
2023-05-24T12:29:39.105Z,16.93
2023-05-24T12:32:12.371Z,10.63
2023-05-24T12:34:42.190Z,12.43
2023-05-24T12:37:12.273Z,14.50
2023-05-24T12:39:42.613Z,20.00
2023-05-24T12:42:13.329Z,18.53
2023-05-24T12:44:41.853Z,18.87
2023-05-24T12:47:11.779Z,17.50
2023-05-24T12:49:40.165Z,16.83
2023-05-24T12:52:08.226Z,18.27
2023-05-24T12:54:36.360Z,20.20
2023-05-24T12:57:04.580Z,20.07
2023-05-24T12:59:34.962Z,16.73
2023-05-24T13:02:03.146Z,17.63
2023-05-24T13:04:33.524Z,22.50
2023-05-24T13:07:02.910Z,18.20
2023-05-24T13:09:31.028Z,18.97
2023-05-24T13:11:59.048Z,14.93
2023-05-24T13:14:27.510Z,15.77
2023-05-24T13:16:57.030Z,17.47
2023-05-24T13:19:25.134Z,23.10
2023-05-24T13:21:53.339Z,17.50
2023-05-24T13:24:21.515Z,20.60
2023-05-24T13:26:51.597Z,19.37
2023-05-24T13:29:34.033Z,16.77
2023-05-24T13:32:09.327Z,15.17
2023-05-24T13:34:37.353Z,18.17
2023-05-24T13:37:05.430Z,15.30
2023-05-24T13:39:33.659Z,19.17
2023-05-24T13:42:01.898Z,17.77
2023-05-24T13:44:30.669Z,17.10
2023-05-24T13:46:59.045Z,16.83
2023-05-24T13:49:28.953Z,15.73
2023-05-24T13:51:58.564Z,15.23
2023-05-24T13:54:27.794Z,18.93
2023-05-24T13:56:57.646Z,17.63
2023-05-24T13:59:25.871Z,13.80
2023-05-24T14:01:54.017Z,15.80
2023-05-24T14:04:22.096Z,18.07
2023-05-24T14:06:51.531Z,18.37
2023-05-24T14:09:21.279Z,16.07
2023-05-24T14:11:49.456Z,16.43
2023-05-24T14:16:55.214Z,18.07
2023-05-24T14:19:23.477Z,20.33
2023-05-24T14:21:52.889Z,19.10
2023-05-24T14:24:21.011Z,19.13
2023-05-24T14:26:49.076Z,20.47
2023-05-24T14:29:17.170Z,16.70
2023-05-24T14:31:45.250Z,21.67
2023-05-24T14:34:13.371Z,17.67
2023-05-24T14:36:41.760Z,21.50
2023-05-24T14:39:11.195Z,19.50
2023-05-24T14:41:39.251Z,16.97
2023-05-24T14:44:07.305Z,18.87
2023-05-24T14:46:35.937Z,19.40
2023-05-24T14:49:04.747Z,15.97
2023-05-24T14:51:32.725Z,18.97
2023-05-24T14:54:00.842Z,20.53
2023-05-24T14:56:30.242Z,14.37
2023-05-24T14:58:59.374Z,15.47
2023-05-24T15:01:27.475Z,12.67
2023-05-24T15:03:55.647Z,16.77
2023-05-24T15:06:23.773Z,16.97
2023-05-24T15:08:52.296Z,16.03
2023-05-24T15:11:20.394Z,21.17
2023-05-24T15:13:49.817Z,18.20
2023-05-24T15:16:18.040Z,19.13
2023-05-24T15:18:46.326Z,17.40
2023-05-24T15:21:14.408Z,17.57
2023-05-24T15:23:42.628Z,18.20
2023-05-24T15:26:10.696Z,20.27
2023-05-24T15:28:38.766Z,15.20
2023-05-24T15:31:08.239Z,14.40
2023-05-24T15:33:37.169Z,15.77
2023-05-24T15:36:05.476Z,14.80
2023-05-24T15:38:34.392Z,20.77
2023-05-24T15:41:03.840Z,14.50
2023-05-24T15:43:31.971Z,16.47
2023-05-24T15:46:00.007Z,17.63
2023-05-24T15:48:29.415Z,16.77
2023-05-24T15:51:53.810Z,14.53
2023-05-24T15:53:45.554Z,17.10
2023-05-24T15:56:13.589Z,13.90
2023-05-24T15:58:41.655Z,15.50
2023-05-24T16:01:09.840Z,15.03
2023-05-24T16:03:39.315Z,18.80
2023-05-24T16:06:08.029Z,14.80
2023-05-24T16:08:36.090Z,16.23
2023-05-24T16:11:08.166Z,15.57
2023-05-24T16:13:36.228Z,16.70
2023-05-24T16:16:04.512Z,17.27
2023-05-24T16:18:34.652Z,16.73
2023-05-24T16:21:04.253Z,14.23
2023-05-24T16:23:32.316Z,13.10
2023-05-24T16:26:00.697Z,15.37
2023-05-24T16:28:29.273Z,14.07
2023-05-24T16:30:58.655Z,18.97
2023-05-24T16:33:26.745Z,15.00
2023-05-24T16:35:58.606Z,15.47
2023-05-24T16:38:29.283Z,13.97
2023-05-24T16:40:57.297Z,17.27
2023-05-24T16:43:25.923Z,15.77
2023-05-24T16:45:55.172Z,13.47
2023-05-24T16:48:28.347Z,14.27
2023-05-24T16:50:57.101Z,15.83
2023-05-24T16:53:26.277Z,11.37
2023-05-24T16:55:57.109Z,13.13
2023-05-24T16:58:28.047Z,14.30
2023-05-24T17:00:56.241Z,15.13
2023-05-24T17:03:28.147Z,15.10
2023-05-24T17:06:01.833Z,11.33
2023-05-24T17:08:32.633Z,13.17
2023-05-24T17:11:02.034Z,13.47
2023-05-24T17:13:30.271Z,14.00
2023-05-24T17:15:59.930Z,14.30
2023-05-24T17:18:31.177Z,14.23
2023-05-24T17:21:01.283Z,13.30
2023-05-24T17:23:31.035Z,13.47
2023-05-24T17:25:59.552Z,10.10
2023-05-24T17:28:29.180Z,11.27
2023-05-24T17:30:57.613Z,13.17
2023-05-24T17:33:26.890Z,12.33
2023-05-24T17:35:56.546Z,10.77
2023-05-24T17:38:25.644Z,12.57
2023-05-24T17:40:56.910Z,11.70
2023-05-24T17:43:28.728Z,10.50
2023-05-24T17:46:03.534Z,8.77
2023-05-24T17:48:32.600Z,13.60
2023-05-24T17:51:00.916Z,15.53
2023-05-24T17:53:31.862Z,14.37
2023-05-24T17:56:00.718Z,14.67
2023-05-24T17:58:30.712Z,16.07
2023-05-24T18:01:00.280Z,12.93
2023-05-24T18:03:28.439Z,14.67
2023-05-24T18:05:56.488Z,10.57
2023-05-24T18:08:25.360Z,11.23
2023-05-24T18:10:53.635Z,12.90
2023-05-24T18:13:21.738Z,10.53
2023-05-24T18:15:49.932Z,9.87
2023-05-24T18:18:19.815Z,12.67
2023-05-24T18:20:48.202Z,13.03
2023-05-24T18:23:16.231Z,17.43
2023-05-24T18:25:45.038Z,22.87
2023-05-24T18:28:13.425Z,15.20
2023-05-24T18:30:42.939Z,10.23
2023-05-24T18:33:11.278Z,15.50
2023-05-24T18:35:40.910Z,10.93
2023-05-24T18:38:09.054Z,12.43
2023-05-24T18:40:37.067Z,10.03
2023-05-24T18:43:05.153Z,14.80
2023-05-24T18:45:33.200Z,11.17
2023-05-24T18:48:01.370Z,12.30
2023-05-24T18:50:29.568Z,12.50
2023-05-24T18:52:58.972Z,14.47
2023-05-24T18:55:27.046Z,12.03
2023-05-24T18:57:55.070Z,12.73
2023-05-24T19:00:24.505Z,14.87
2023-05-24T19:02:52.668Z,11.40
2023-05-24T19:05:21.192Z,13.63
2023-05-24T19:07:49.271Z,9.97
2023-05-24T19:10:18.739Z,10.67
2023-05-24T19:12:46.752Z,13.00
2023-05-24T19:15:14.790Z,14.23
2023-05-24T19:17:42.817Z,12.03
2023-05-24T19:20:11.986Z,12.67
2023-05-24T19:22:40.050Z,11.27
2023-05-24T19:25:09.115Z,12.50
2023-05-24T19:27:44.704Z,13.77
2023-05-24T19:30:23.109Z,11.57
2023-05-24T19:32:51.214Z,14.33
2023-05-24T19:35:19.278Z,12.87
2023-05-24T19:37:47.367Z,10.63
2023-05-24T19:40:15.400Z,12.87
2023-05-24T19:42:44.814Z,13.87
2023-05-24T19:45:13.422Z,9.80
2023-05-24T19:47:41.761Z,9.77
2023-05-24T19:50:10.668Z,12.87
2023-05-24T19:52:38.725Z,11.87
2023-05-24T19:55:07.921Z,10.57
2023-05-24T19:57:35.987Z,9.87
2023-05-24T20:00:06.741Z,11.63
2023-05-24T20:02:36.571Z,11.63
2023-05-24T20:05:05.320Z,12.03
2023-05-24T20:07:33.389Z,11.37
2023-05-24T20:10:01.742Z,12.83
2023-05-24T20:12:30.827Z,10.17
2023-05-24T20:14:58.862Z,13.10
2023-05-24T20:17:28.257Z,12.93
2023-05-24T20:19:56.418Z,10.70
2023-05-24T20:22:24.482Z,9.20
2023-05-24T20:24:52.538Z,16.80
2023-05-24T20:27:21.322Z,13.73
2023-05-24T20:29:49.633Z,15.40
2023-05-24T20:32:17.761Z,14.60
2023-05-24T20:34:47.178Z,14.27
2023-05-24T20:37:15.260Z,11.27
2023-05-24T20:39:43.270Z,13.33
2023-05-24T20:42:11.744Z,12.27
2023-05-24T20:44:39.745Z,12.27
2023-05-24T20:47:07.954Z,13.60
2023-05-24T20:49:36.905Z,11.13
2023-05-24T20:52:06.970Z,14.90
2023-05-24T20:54:34.990Z,16.77
2023-05-24T20:57:03.193Z,16.13
2023-05-24T20:59:31.494Z,15.93
2023-05-24T21:01:59.544Z,18.40
2023-05-24T21:04:27.621Z,15.47
2023-05-24T21:06:55.982Z,17.63
2023-05-24T21:09:25.488Z,16.03
2023-05-24T21:11:53.530Z,13.30
2023-05-24T21:14:21.532Z,14.13
2023-05-24T21:16:49.546Z,14.93
2023-05-24T21:19:17.601Z,15.83
2023-05-24T21:21:45.660Z,18.17
2023-05-24T21:24:15.896Z,14.23
2023-05-24T21:26:45.326Z,12.97
2023-05-24T21:29:13.820Z,10.80
2023-05-24T21:31:42.095Z,13.70
2023-05-24T21:34:10.163Z,13.87
2023-05-24T21:36:38.437Z,12.03
2023-05-24T21:39:08.268Z,11.17
2023-05-24T21:41:36.878Z,14.37
2023-05-24T21:44:08.120Z,13.97
2023-05-24T21:46:36.457Z,12.37
2023-05-24T21:49:04.668Z,15.53
2023-05-24T21:51:33.022Z,12.87
2023-05-24T21:54:01.087Z,15.57
2023-05-24T21:56:29.116Z,13.50
2023-05-24T21:58:57.166Z,12.47
2023-05-24T22:01:28.254Z,13.57
2023-05-24T22:03:56.556Z,13.27
2023-05-24T22:06:24.754Z,13.03
2023-05-24T22:08:52.821Z,14.40
2023-05-24T22:11:21.305Z,11.87
2023-05-24T22:13:49.331Z,12.27
2023-05-24T22:16:17.439Z,14.03
2023-05-24T22:18:47.909Z,11.63
2023-05-24T22:21:15.921Z,12.90
2023-05-24T22:23:44.035Z,11.93
2023-05-24T22:26:12.900Z,12.03
2023-05-24T22:28:54.105Z,13.90
2023-05-24T22:31:22.550Z,8.70
2023-05-24T22:33:52.016Z,14.77
2023-05-24T22:36:20.936Z,8.90
2023-05-24T22:38:49.013Z,11.13
2023-05-24T22:41:17.054Z,13.27
2023-05-24T22:43:45.318Z,11.13
2023-05-24T22:46:13.438Z,11.73
2023-05-24T22:48:41.498Z,12.33
2023-05-24T22:51:12.511Z,11.73
2023-05-24T22:53:40.561Z,12.07
2023-05-24T22:56:10.452Z,10.23
2023-05-24T22:58:39.020Z,9.03
2023-05-24T23:01:07.220Z,11.10
2023-05-24T23:03:35.417Z,11.03
2023-05-24T23:06:04.317Z,10.57
2023-05-24T23:08:34.664Z,9.73
2023-05-24T23:11:10.195Z,9.57
2023-05-24T23:13:38.734Z,9.07
2023-05-24T23:16:07.308Z,8.80
2023-05-24T23:18:37.792Z,10.20
2023-05-24T23:21:06.073Z,8.63
2023-05-24T23:23:35.461Z,9.17
2023-05-24T23:26:03.511Z,8.43
2023-05-24T23:28:31.678Z,8.63
2023-05-24T23:30:59.830Z,7.23
2023-05-24T23:33:27.924Z,10.00
2023-05-24T23:35:55.986Z,7.30
2023-05-24T23:38:24.000Z,7.07
2023-05-24T23:40:53.392Z,9.87
2023-05-24T23:43:21.427Z,9.10
2023-05-24T23:45:50.577Z,10.17
2023-05-24T23:48:18.592Z,7.87
2023-05-24T23:50:53.989Z,8.43
2023-05-24T23:53:23.075Z,9.83
2023-05-24T23:55:51.127Z,10.03
2023-05-24T23:58:20.654Z,8.40
